sensor_id;sensor_type;location;lat;lon;timestamp;pressure;altitude;pressure_sealevel;temperature;humidity
50302;BME280;36550;50.472;19.744;2023-08-12T00:02:13;98735.30;;;14.11;77.14
50302;BME280;36550;50.472;19.744;2023-08-12T00:05:38;98735.99;;;14.04;77.32
50302;BME280;36550;50.472;19.744;2023-08-12T00:09:04;98733.08;;;13.97;77.17
50302;BME280;36550;50.472;19.744;2023-08-12T00:12:48;98734.15;;;13.89;77.18
50302;BME280;36550;50.472;19.744;2023-08-12T00:15:52;98729.35;;;13.86;77.28
50302;BME280;36550;50.472;19.744;2023-08-12T00:19:16;98724.67;;;13.84;77.46
50302;BME280;36550;50.472;19.744;2023-08-12T00:22:21;98723.16;;;13.81;77.31
50302;BME280;36550;50.472;19.744;2023-08-12T00:26:04;98720.42;;;13.78;77.42
50302;BME280;36550;50.472;19.744;2023-08-12T00:29:36;98715.63;;;13.71;77.52
50302;BME280;36550;50.472;19.744;2023-08-12T00:33:00;98707.73;;;13.66;77.47
50302;BME280;36550;50.472;19.744;2023-08-12T00:36:24;98707.45;;;13.62;77.57
50302;BME280;36550;50.472;19.744;2023-08-12T00:39:36;98704.11;;;13.58;77.39
50302;BME280;36550;50.472;19.744;2023-08-12T00:43:19;98701.41;;;13.55;77.42
50302;BME280;36550;50.472;19.744;2023-08-12T00:46:24;98702.04;;;13.51;77.50
50302;BME280;36550;50.472;19.744;2023-08-12T00:49:29;98701.16;;;13.47;77.51
50302;BME280;36550;50.472;19.744;2023-08-12T00:52:38;98697.77;;;13.43;77.70
50302;BME280;36550;50.472;19.744;2023-08-12T00:56:22;98701.96;;;13.35;77.51
50302;BME280;36550;50.472;19.744;2023-08-12T00:59:34;98703.02;;;13.29;77.42
50302;BME280;36550;50.472;19.744;2023-08-12T01:03:18;98701.31;;;13.25;77.44
50302;BME280;36550;50.472;19.744;2023-08-12T01:07:01;98704.16;;;13.23;77.61
50302;BME280;36550;50.472;19.744;2023-08-12T01:10:48;98705.23;;;13.20;77.62
50302;BME280;36550;50.472;19.744;2023-08-12T01:14:28;98709.17;;;13.14;77.61
50302;BME280;36550;50.472;19.744;2023-08-12T01:17:43;98711.06;;;13.08;77.74
50302;BME280;36550;50.472;19.744;2023-08-12T01:21:27;98709.52;;;13.05;77.82
50302;BME280;36550;50.472;19.744;2023-08-12T01:25:11;98707.17;;;13.04;77.83
50302;BME280;36550;50.472;19.744;2023-08-12T01:28:49;98709.40;;;13.04;78.01
50302;BME280;36550;50.472;19.744;2023-08-12T01:35:57;98710.61;;;13.05;78.26
50302;BME280;36550;50.472;19.744;2023-08-12T01:39:11;98706.13;;;13.00;78.13
50302;BME280;36550;50.472;19.744;2023-08-12T01:42:55;98703.42;;;12.95;78.14
50302;BME280;36550;50.472;19.744;2023-08-12T01:46:20;98702.33;;;12.93;78.17
50302;BME280;36550;50.472;19.744;2023-08-12T01:49:19;98701.91;;;12.94;78.29
50302;BME280;36550;50.472;19.744;2023-08-12T01:52:43;98704.20;;;12.95;78.39
50302;BME280;36550;50.472;19.744;2023-08-12T01:56:27;98706.48;;;12.96;78.35
50302;BME280;36550;50.472;19.744;2023-08-12T01:59:15;98704.84;;;12.95;78.31
50302;BME280;36550;50.472;19.744;2023-08-12T02:02:59;98703.25;;;12.92;78.25
50302;BME280;36550;50.472;19.744;2023-08-12T02:06:37;98707.46;;;12.87;78.25
50302;BME280;36550;50.472;19.744;2023-08-12T02:09:41;98705.59;;;12.83;78.37
50302;BME280;36550;50.472;19.744;2023-08-12T02:13:25;98709.95;;;12.80;78.26
50302;BME280;36550;50.472;19.744;2023-08-12T02:17:09;98709.92;;;12.79;78.21
50302;BME280;36550;50.472;19.744;2023-08-12T02:20:53;98706.61;;;12.79;78.37
50302;BME280;36550;50.472;19.744;2023-08-12T02:24:37;98714.58;;;12.79;78.53
50302;BME280;36550;50.472;19.744;2023-08-12T02:28:01;98709.63;;;12.80;78.52
50302;BME280;36550;50.472;19.744;2023-08-12T02:30:46;98712.01;;;12.78;78.67
50302;BME280;36550;50.472;19.744;2023-08-12T02:33:30;98712.84;;;12.75;78.65
50302;BME280;36550;50.472;19.744;2023-08-12T02:36:14;98711.71;;;12.71;78.65
50302;BME280;36550;50.472;19.744;2023-08-12T02:38:58;98714.09;;;12.67;78.51
50302;BME280;36550;50.472;19.744;2023-08-12T02:41:42;98715.88;;;12.66;78.50
50302;BME280;36550;50.472;19.744;2023-08-12T02:45:27;98717.31;;;12.65;78.50
50302;BME280;36550;50.472;19.744;2023-08-12T02:49:12;98718.30;;;12.64;78.47
50302;BME280;36550;50.472;19.744;2023-08-12T02:52:57;98722.08;;;12.61;78.59
50302;BME280;36550;50.472;19.744;2023-08-12T02:56:41;98719.45;;;12.59;78.60
50302;BME280;36550;50.472;19.744;2023-08-12T02:59:47;98720.18;;;12.56;78.45
50302;BME280;36550;50.472;19.744;2023-08-12T03:03:32;98721.09;;;12.55;78.36
50302;BME280;36550;50.472;19.744;2023-08-12T03:07:17;98721.09;;;12.52;78.54
50302;BME280;36550;50.472;19.744;2023-08-12T03:11:02;98727.69;;;12.50;78.60
50302;BME280;36550;50.472;19.744;2023-08-12T03:14:46;98722.95;;;12.48;78.69
50302;BME280;36550;50.472;19.744;2023-08-12T03:18:30;98726.27;;;12.44;78.69
50302;BME280;36550;50.472;19.744;2023-08-12T03:22:14;98728.16;;;12.41;78.75
50302;BME280;36550;50.472;19.744;2023-08-12T03:25:59;98728.55;;;12.40;78.55
50302;BME280;36550;50.472;19.744;2023-08-12T03:29:43;98722.38;;;12.39;78.60
50302;BME280;36550;50.472;19.744;2023-08-12T03:33:28;98722.52;;;12.38;78.59
50302;BME280;36550;50.472;19.744;2023-08-12T03:37:12;98724.56;;;12.36;78.55
50302;BME280;36550;50.472;19.744;2023-08-12T03:41:00;98726.41;;;12.31;78.80
50302;BME280;36550;50.472;19.744;2023-08-12T03:44:24;98727.13;;;12.30;78.81
50302;BME280;36550;50.472;19.744;2023-08-12T03:48:08;98724.17;;;12.33;78.69
50302;BME280;36550;50.472;19.744;2023-08-12T03:51:52;98722.88;;;12.36;78.88
50302;BME280;36550;50.472;19.744;2023-08-12T03:55:37;98724.75;;;12.37;79.08
50302;BME280;36550;50.472;19.744;2023-08-12T03:59:22;98726.17;;;12.39;79.09
50302;BME280;36550;50.472;19.744;2023-08-12T04:03:06;98719.38;;;12.39;79.18
50302;BME280;36550;50.472;19.744;2023-08-12T04:06:32;98716.88;;;12.43;79.29
50302;BME280;36550;50.472;19.744;2023-08-12T04:09:56;98718.66;;;12.47;79.33
50302;BME280;36550;50.472;19.744;2023-08-12T04:13:41;98718.30;;;12.55;79.41
50302;BME280;36550;50.472;19.744;2023-08-12T04:17:26;98715.33;;;12.60;79.48
50302;BME280;36550;50.472;19.744;2023-08-12T04:24:58;98716.39;;;12.69;79.76
50302;BME280;36550;50.472;19.744;2023-08-12T04:28:43;98726.17;;;12.75;79.89
50302;BME280;36550;50.472;19.744;2023-08-12T04:32:28;98723.98;;;12.80;79.88
50302;BME280;36550;50.472;19.744;2023-08-12T04:36:13;98721.25;;;12.86;79.97
50302;BME280;36550;50.472;19.744;2023-08-12T04:39:37;98723.96;;;12.96;80.12
50302;BME280;36550;50.472;19.744;2023-08-12T04:42:43;98729.02;;;13.05;80.27
50302;BME280;36550;50.472;19.744;2023-08-12T04:46:27;98732.05;;;13.20;80.59
50302;BME280;36550;50.472;19.744;2023-08-12T04:50:11;98733.55;;;13.37;80.65
50302;BME280;36550;50.472;19.744;2023-08-12T04:53:56;98731.38;;;13.54;80.70
50302;BME280;36550;50.472;19.744;2023-08-12T04:57:20;98730.93;;;13.75;80.81
50302;BME280;36550;50.472;19.744;2023-08-12T05:01:04;98730.42;;;13.94;80.96
50302;BME280;36550;50.472;19.744;2023-08-12T05:04:46;98729.85;;;14.13;80.85
50302;BME280;36550;50.472;19.744;2023-08-12T05:08:27;98729.67;;;14.26;80.81
50302;BME280;36550;50.472;19.744;2023-08-12T05:12:12;98730.85;;;14.37;80.84
50302;BME280;36550;50.472;19.744;2023-08-12T05:15:56;98732.23;;;14.48;80.74
50302;BME280;36550;50.472;19.744;2023-08-12T05:19:40;98727.64;;;14.58;80.75
50302;BME280;36550;50.472;19.744;2023-08-12T05:23:25;98725.82;;;14.71;80.68
50302;BME280;36550;50.472;19.744;2023-08-12T05:27:09;98721.58;;;14.85;80.73
50302;BME280;36550;50.472;19.744;2023-08-12T05:30:54;98720.98;;;15.01;80.73
50302;BME280;36550;50.472;19.744;2023-08-12T05:34:18;98719.90;;;15.16;80.58
50302;BME280;36550;50.472;19.744;2023-08-12T05:37:25;98720.08;;;15.27;80.63
50302;BME280;36550;50.472;19.744;2023-08-12T05:41:09;98720.20;;;15.43;80.56
50302;BME280;36550;50.472;19.744;2023-08-12T05:44:54;98719.83;;;15.57;80.41
50302;BME280;36550;50.472;19.744;2023-08-12T05:48:39;98715.95;;;15.72;80.48
50302;BME280;36550;50.472;19.744;2023-08-12T05:52:23;98721.21;;;15.90;80.48
50302;BME280;36550;50.472;19.744;2023-08-12T05:56:08;98726.15;;;16.10;80.50
50302;BME280;36550;50.472;19.744;2023-08-12T05:59:52;98718.26;;;16.30;80.68
50302;BME280;36550;50.472;19.744;2023-08-12T06:03:36;98721.63;;;16.51;80.50
50302;BME280;36550;50.472;19.744;2023-08-12T06:07:21;98720.38;;;16.71;80.42
50302;BME280;36550;50.472;19.744;2023-08-12T06:11:05;98722.88;;;16.88;79.83
50302;BME280;36550;50.472;19.744;2023-08-12T06:14:50;98719.92;;;17.04;79.27
50302;BME280;36550;50.472;19.744;2023-08-12T06:18:34;98717.65;;;17.19;78.82
50302;BME280;36550;50.472;19.744;2023-08-12T06:22:18;98714.14;;;17.34;78.53
50302;BME280;36550;50.472;19.744;2023-08-12T06:26:03;98717.84;;;17.48;78.17
50302;BME280;36550;50.472;19.744;2023-08-12T06:29:48;98721.85;;;17.62;77.99
50302;BME280;36550;50.472;19.744;2023-08-12T06:33:32;98711.10;;;17.79;77.70
50302;BME280;36550;50.472;19.744;2023-08-12T06:37:16;98713.79;;;17.97;77.37
50302;BME280;36550;50.472;19.744;2023-08-12T06:41:01;98714.17;;;18.11;77.08
50302;BME280;36550;50.472;19.744;2023-08-12T06:44:45;98711.56;;;18.26;76.66
50302;BME280;36550;50.472;19.744;2023-08-12T06:48:30;98708.63;;;18.38;75.94
50302;BME280;36550;50.472;19.744;2023-08-12T06:52:15;98706.70;;;18.49;75.20
50302;BME280;36550;50.472;19.744;2023-08-12T06:56:00;98706.68;;;18.59;74.63
50302;BME280;36550;50.472;19.744;2023-08-12T06:59:44;98700.48;;;18.70;74.56
50302;BME280;36550;50.472;19.744;2023-08-12T07:03:29;98702.86;;;18.74;73.94
50302;BME280;36550;50.472;19.744;2023-08-12T07:06:53;98702.38;;;18.81;73.69
50302;BME280;36550;50.472;19.744;2023-08-12T07:10:18;98702.01;;;18.85;73.53
50302;BME280;36550;50.472;19.744;2023-08-12T07:14:02;98702.03;;;18.94;73.60
50302;BME280;36550;50.472;19.744;2023-08-12T07:17:47;98699.55;;;19.02;73.14
50302;BME280;36550;50.472;19.744;2023-08-12T07:21:31;98692.70;;;19.09;72.84
50302;BME280;36550;50.472;19.744;2023-08-12T07:25:16;98692.40;;;19.17;72.75
50302;BME280;36550;50.472;19.744;2023-08-12T07:28:41;98694.92;;;19.25;72.60
50302;BME280;36550;50.472;19.744;2023-08-12T07:31:45;98691.66;;;19.29;72.53
50302;BME280;36550;50.472;19.744;2023-08-12T07:35:29;98690.72;;;19.34;72.06
50302;BME280;36550;50.472;19.744;2023-08-12T07:39:13;98694.95;;;19.41;71.84
50302;BME280;36550;50.472;19.744;2023-08-12T07:42:57;98694.98;;;19.51;71.34
50302;BME280;36550;50.472;19.744;2023-08-12T07:46:42;98696.70;;;19.59;70.79
50302;BME280;36550;50.472;19.744;2023-08-12T07:50:26;98699.96;;;19.63;70.37
50302;BME280;36550;50.472;19.744;2023-08-12T07:54:14;98697.77;;;19.66;69.96
50302;BME280;36550;50.472;19.744;2023-08-12T07:57:58;98692.04;;;19.70;69.92
50302;BME280;36550;50.472;19.744;2023-08-12T08:01:43;98690.96;;;19.74;69.62
50302;BME280;36550;50.472;19.744;2023-08-12T08:05:27;98686.80;;;19.77;69.14
50302;BME280;36550;50.472;19.744;2023-08-12T08:09:11;98678.58;;;19.80;68.87
50302;BME280;36550;50.472;19.744;2023-08-12T08:12:55;98672.55;;;19.82;68.50
50302;BME280;36550;50.472;19.744;2023-08-12T08:16:40;98674.25;;;19.87;68.19
50302;BME280;36550;50.472;19.744;2023-08-12T08:20:24;98668.42;;;19.90;67.87
50302;BME280;36550;50.472;19.744;2023-08-12T08:23:55;98668.85;;;19.90;67.84
50302;BME280;36550;50.472;19.744;2023-08-12T08:27:20;98666.36;;;19.94;67.86
50302;BME280;36550;50.472;19.744;2023-08-12T08:30:19;98666.73;;;20.01;67.51
50302;BME280;36550;50.472;19.744;2023-08-12T08:33:23;98665.64;;;20.04;67.28
50302;BME280;36550;50.472;19.744;2023-08-12T08:36:47;98664.07;;;20.07;67.00
50302;BME280;36550;50.472;19.744;2023-08-12T08:40:30;98666.82;;;20.10;66.81
50302;BME280;36550;50.472;19.744;2023-08-12T08:44:14;98668.71;;;20.13;66.87
50302;BME280;36550;50.472;19.744;2023-08-12T08:47:59;98663.23;;;20.15;66.71
50302;BME280;36550;50.472;19.744;2023-08-12T08:51:42;98661.69;;;20.23;65.43
50302;BME280;36550;50.472;19.744;2023-08-12T08:55:26;98663.41;;;20.32;65.95
50302;BME280;36550;50.472;19.744;2023-08-12T08:58:50;98660.25;;;20.40;65.70
50302;BME280;36550;50.472;19.744;2023-08-12T09:01:36;98659.59;;;20.40;65.57
50302;BME280;36550;50.472;19.744;2023-08-12T09:04:21;98660.92;;;20.41;65.18
50302;BME280;36550;50.472;19.744;2023-08-12T09:07:05;98662.71;;;20.44;65.43
50302;BME280;36550;50.472;19.744;2023-08-12T09:09:52;98662.96;;;20.44;65.27
50302;BME280;36550;50.472;19.744;2023-08-12T09:12:36;98658.35;;;20.47;65.05
50302;BME280;36550;50.472;19.744;2023-08-12T09:15:21;98652.40;;;20.49;64.86
50302;BME280;36550;50.472;19.744;2023-08-12T09:18:05;98649.94;;;20.50;64.65
50302;BME280;36550;50.472;19.744;2023-08-12T09:20:51;98652.70;;;20.52;64.31
50302;BME280;36550;50.472;19.744;2023-08-12T09:23:37;98650.54;;;20.55;64.25
50302;BME280;36550;50.472;19.744;2023-08-12T09:27:01;98647.58;;;20.57;64.10
50302;BME280;36550;50.472;19.744;2023-08-12T09:30:41;98642.21;;;20.62;63.83
50302;BME280;36550;50.472;19.744;2023-08-12T09:34:25;98641.80;;;20.69;63.75
50302;BME280;36550;50.472;19.744;2023-08-12T09:37:49;98636.52;;;20.75;63.40
50302;BME280;36550;50.472;19.744;2023-08-12T09:40:35;98636.08;;;20.80;63.50
50302;BME280;36550;50.472;19.744;2023-08-12T09:43:23;98632.93;;;20.85;63.50
50302;BME280;36550;50.472;19.744;2023-08-12T09:47:07;98636.89;;;20.88;63.11
50302;BME280;36550;50.472;19.744;2023-08-12T09:50:51;98628.58;;;20.91;63.03
50302;BME280;36550;50.472;19.744;2023-08-12T09:53:36;98625.05;;;20.92;62.81
50302;BME280;36550;50.472;19.744;2023-08-12T09:56:23;98619.05;;;20.92;62.61
50302;BME280;36550;50.472;19.744;2023-08-12T09:59:09;98615.11;;;20.92;62.42
50302;BME280;36550;50.472;19.744;2023-08-12T10:01:55;98610.16;;;20.90;62.41
50302;BME280;36550;50.472;19.744;2023-08-12T10:04:42;98606.25;;;20.89;62.32
50302;BME280;36550;50.472;19.744;2023-08-12T10:07:28;98607.02;;;20.87;62.33
50302;BME280;36550;50.472;19.744;2023-08-12T10:10:32;98607.30;;;20.89;62.16
50302;BME280;36550;50.472;19.744;2023-08-12T10:14:17;98604.17;;;20.96;62.09
50302;BME280;36550;50.472;19.744;2023-08-12T10:17:41;98605.41;;;21.04;62.07
50302;BME280;36550;50.472;19.744;2023-08-12T10:21:26;98602.69;;;21.07;62.01
50302;BME280;36550;50.472;19.744;2023-08-12T10:25:11;98598.71;;;21.09;62.01
50302;BME280;36550;50.472;19.744;2023-08-12T10:28:55;98603.34;;;21.10;61.89
50302;BME280;36550;50.472;19.744;2023-08-12T10:32:39;98597.13;;;21.12;62.35
50302;BME280;36550;50.472;19.744;2023-08-12T10:36:25;98593.73;;;21.18;62.04
50302;BME280;36550;50.472;19.744;2023-08-12T10:39:48;98593.62;;;21.25;61.52
50302;BME280;36550;50.472;19.744;2023-08-12T10:43:47;98585.22;;;21.33;61.99
50302;BME280;36550;50.472;19.744;2023-08-12T10:46:58;98588.14;;;21.39;62.02
50302;BME280;36550;50.472;19.744;2023-08-12T10:50:25;98587.70;;;21.42;61.63
50302;BME280;36550;50.472;19.744;2023-08-12T10:53:23;98587.70;;;21.43;61.61
50302;BME280;36550;50.472;19.744;2023-08-12T10:56:11;98584.60;;;21.48;61.32
50302;BME280;36550;50.472;19.744;2023-08-12T10:59:46;98582.67;;;21.52;61.40
50302;BME280;36550;50.472;19.744;2023-08-12T11:02:59;98579.90;;;21.57;60.94
50302;BME280;36550;50.472;19.744;2023-08-12T11:06:42;98578.81;;;21.59;60.76
50302;BME280;36550;50.472;19.744;2023-08-12T11:09:27;98575.65;;;21.60;60.30
50302;BME280;36550;50.472;19.744;2023-08-12T11:12:17;98573.89;;;21.60;60.19
50302;BME280;36550;50.472;19.744;2023-08-12T11:15:03;98571.45;;;21.58;60.33
50302;BME280;36550;50.472;19.744;2023-08-12T11:17:48;98572.60;;;21.60;60.45
50302;BME280;36550;50.472;19.744;2023-08-12T11:20:38;98567.84;;;21.63;60.18
50302;BME280;36550;50.472;19.744;2023-08-12T11:23:23;98562.91;;;21.68;60.12
50302;BME280;36550;50.472;19.744;2023-08-12T11:26:08;98558.48;;;21.69;59.96
50302;BME280;36550;50.472;19.744;2023-08-12T11:29:32;98556.73;;;21.72;59.91
50302;BME280;36550;50.472;19.744;2023-08-12T11:33:00;98552.28;;;21.80;60.19
50302;BME280;36550;50.472;19.744;2023-08-12T11:36:25;98553.44;;;21.84;60.12
50302;BME280;36550;50.472;19.744;2023-08-12T11:39:37;98550.80;;;21.84;59.98
50302;BME280;36550;50.472;19.744;2023-08-12T11:43:21;98544.03;;;21.84;60.02
50302;BME280;36550;50.472;19.744;2023-08-12T11:46:45;98540.49;;;21.87;59.58
50302;BME280;36550;50.472;19.744;2023-08-12T11:49:29;98535.99;;;21.91;59.51
50302;BME280;36550;50.472;19.744;2023-08-12T11:52:14;98532.80;;;21.93;59.44
50302;BME280;36550;50.472;19.744;2023-08-12T11:54:58;98528.77;;;21.93;59.42
50302;BME280;36550;50.472;19.744;2023-08-12T11:57:57;98530.70;;;21.94;59.37
50302;BME280;36550;50.472;19.744;2023-08-12T12:01:41;98526.69;;;21.94;59.51
50302;BME280;36550;50.472;19.744;2023-08-12T12:05:16;98522.39;;;21.95;59.41
50302;BME280;36550;50.472;19.744;2023-08-12T12:08:20;98521.67;;;21.96;59.38
50302;BME280;36550;50.472;19.744;2023-08-12T12:12:04;98513.78;;;22.01;59.60
50302;BME280;36550;50.472;19.744;2023-08-12T12:15:45;98517.45;;;22.07;59.39
50302;BME280;36550;50.472;19.744;2023-08-12T12:19:29;98516.29;;;22.15;59.50
50302;BME280;36550;50.472;19.744;2023-08-12T12:23:13;98509.44;;;22.21;59.48
50302;BME280;36550;50.472;19.744;2023-08-12T12:26:57;98507.36;;;22.27;59.52
50302;BME280;36550;50.472;19.744;2023-08-12T12:30:41;98505.92;;;22.30;59.25
50302;BME280;36550;50.472;19.744;2023-08-12T12:34:25;98501.08;;;22.36;59.30
50302;BME280;36550;50.472;19.744;2023-08-12T12:38:09;98496.95;;;22.36;59.23
50302;BME280;36550;50.472;19.744;2023-08-12T12:41:54;98497.20;;;22.40;59.33
50302;BME280;36550;50.472;19.744;2023-08-12T12:45:39;98495.22;;;22.42;59.01
50302;BME280;36550;50.472;19.744;2023-08-12T12:49:10;98494.45;;;22.45;59.17
50302;BME280;36550;50.472;19.744;2023-08-12T12:52:54;98491.02;;;22.48;58.94
50302;BME280;36550;50.472;19.744;2023-08-12T12:56:39;98486.05;;;22.48;58.86
50302;BME280;36550;50.472;19.744;2023-08-12T13:00:23;98481.92;;;22.48;58.82
50302;BME280;36550;50.472;19.744;2023-08-12T13:04:08;98479.13;;;22.47;58.85
50302;BME280;36550;50.472;19.744;2023-08-12T13:07:52;98480.77;;;22.48;58.71
50302;BME280;36550;50.472;19.744;2023-08-12T13:11:36;98472.09;;;22.58;58.72
50302;BME280;36550;50.472;19.744;2023-08-12T13:15:21;98475.39;;;22.68;58.46
50302;BME280;36550;50.472;19.744;2023-08-12T13:19:15;98469.39;;;22.74;58.37
50302;BME280;36550;50.472;19.744;2023-08-12T13:23:00;98471.95;;;22.78;58.12
50302;BME280;36550;50.472;19.744;2023-08-12T13:26:44;98466.46;;;22.85;57.87
50302;BME280;36550;50.472;19.744;2023-08-12T13:30:28;98468.11;;;22.92;57.64
50302;BME280;36550;50.472;19.744;2023-08-12T13:34:13;98466.15;;;22.91;57.31
50302;BME280;36550;50.472;19.744;2023-08-12T13:37:57;98463.78;;;22.89;57.37
50302;BME280;36550;50.472;19.744;2023-08-12T13:41:42;98455.30;;;22.86;57.37
50302;BME280;36550;50.472;19.744;2023-08-12T13:45:27;98452.55;;;22.84;57.36
50302;BME280;36550;50.472;19.744;2023-08-12T13:49:11;98451.23;;;22.83;57.18
50302;BME280;36550;50.472;19.744;2023-08-12T13:52:56;98449.02;;;22.84;57.27
50302;BME280;36550;50.472;19.744;2023-08-12T13:56:40;98445.86;;;22.93;57.28
50302;BME280;36550;50.472;19.744;2023-08-12T14:00:08;98443.77;;;22.96;57.10
50302;BME280;36550;50.472;19.744;2023-08-12T14:03:52;98436.34;;;22.97;56.99
50302;BME280;36550;50.472;19.744;2023-08-12T14:07:37;98430.45;;;23.01;56.75
50302;BME280;36550;50.472;19.744;2023-08-12T14:11:22;98429.00;;;23.07;56.66
50302;BME280;36550;50.472;19.744;2023-08-12T14:15:07;98429.77;;;23.11;56.36
50302;BME280;36550;50.472;19.744;2023-08-12T14:18:51;98424.04;;;23.15;56.58
50302;BME280;36550;50.472;19.744;2023-08-12T14:22:35;98427.36;;;23.19;56.39
50302;BME280;36550;50.472;19.744;2023-08-12T14:26:20;98429.64;;;23.25;56.08
50302;BME280;36550;50.472;19.744;2023-08-12T14:29:45;98424.45;;;23.25;55.96
50302;BME280;36550;50.472;19.744;2023-08-12T14:33:29;98424.80;;;23.26;55.69
50302;BME280;36550;50.472;19.744;2023-08-12T14:37:13;98418.61;;;23.24;55.82
50302;BME280;36550;50.472;19.744;2023-08-12T14:40:58;98412.86;;;23.23;55.82
50302;BME280;36550;50.472;19.744;2023-08-12T14:44:42;98411.14;;;23.20;55.98
50302;BME280;36550;50.472;19.744;2023-08-12T14:48:27;98401.09;;;23.18;55.81
50302;BME280;36550;50.472;19.744;2023-08-12T14:52:14;98401.58;;;23.16;55.83
50302;BME280;36550;50.472;19.744;2023-08-12T14:55:58;98396.84;;;23.13;55.66
50302;BME280;36550;50.472;19.744;2023-08-12T14:59:43;98397.52;;;23.11;55.68
50302;BME280;36550;50.472;19.744;2023-08-12T15:03:27;98395.09;;;23.09;55.80
50302;BME280;36550;50.472;19.744;2023-08-12T15:07:11;98397.12;;;23.06;55.64
50302;BME280;36550;50.472;19.744;2023-08-12T15:10:55;98396.09;;;23.07;55.80
50302;BME280;36550;50.472;19.744;2023-08-12T15:14:40;98391.17;;;23.06;55.61
50302;BME280;36550;50.472;19.744;2023-08-12T15:18:04;98388.79;;;23.08;55.42
50302;BME280;36550;50.472;19.744;2023-08-12T15:21:49;98388.67;;;23.05;55.34
50302;BME280;36550;50.472;19.744;2023-08-12T15:25:33;98385.55;;;23.04;55.44
50302;BME280;36550;50.472;19.744;2023-08-12T15:29:17;98378.64;;;23.01;55.49
50302;BME280;36550;50.472;19.744;2023-08-12T15:33:01;98376.30;;;22.98;55.44
50302;BME280;36550;50.472;19.744;2023-08-12T15:36:39;98373.66;;;22.95;55.35
50302;BME280;36550;50.472;19.744;2023-08-12T15:39:24;98373.59;;;22.93;55.38
50302;BME280;36550;50.472;19.744;2023-08-12T15:42:08;98373.25;;;22.93;55.42
50302;BME280;36550;50.472;19.744;2023-08-12T15:44:55;98370.79;;;22.94;55.49
50302;BME280;36550;50.472;19.744;2023-08-12T15:47:59;98370.30;;;22.95;55.47
50302;BME280;36550;50.472;19.744;2023-08-12T15:51:43;98365.56;;;22.93;55.39
50302;BME280;36550;50.472;19.744;2023-08-12T15:55:27;98364.39;;;22.93;55.23
50302;BME280;36550;50.472;19.744;2023-08-12T15:58:31;98364.40;;;22.93;55.32
50302;BME280;36550;50.472;19.744;2023-08-12T16:02:16;98358.88;;;22.93;55.42
50302;BME280;36550;50.472;19.744;2023-08-12T16:06:00;98358.91;;;22.92;55.63
50302;BME280;36550;50.472;19.744;2023-08-12T16:09:44;98355.72;;;22.89;55.61
50302;BME280;36550;50.472;19.744;2023-08-12T16:13:28;98357.06;;;22.86;55.56
50302;BME280;36550;50.472;19.744;2023-08-12T16:17:12;98356.73;;;22.85;55.82
50302;BME280;36550;50.472;19.744;2023-08-12T16:20:56;98356.01;;;22.84;55.73
50302;BME280;36550;50.472;19.744;2023-08-12T16:24:40;98357.75;;;22.81;55.68
50302;BME280;36550;50.472;19.744;2023-08-12T16:28:25;98357.65;;;22.76;55.60
50302;BME280;36550;50.472;19.744;2023-08-12T16:32:08;98358.77;;;22.72;55.63
50302;BME280;36550;50.472;19.744;2023-08-12T16:35:52;98358.94;;;22.69;55.59
50302;BME280;36550;50.472;19.744;2023-08-12T16:39:36;98360.31;;;22.66;55.83
50302;BME280;36550;50.472;19.744;2023-08-12T16:43:20;98358.45;;;22.63;55.89
50302;BME280;36550;50.472;19.744;2023-08-12T16:47:04;98357.82;;;22.60;56.43
50302;BME280;36550;50.472;19.744;2023-08-12T16:50:49;98357.83;;;22.58;56.72
50302;BME280;36550;50.472;19.744;2023-08-12T16:54:33;98360.81;;;22.54;56.96
50302;BME280;36550;50.472;19.744;2023-08-12T16:58:17;98363.17;;;22.48;56.82
50302;BME280;36550;50.472;19.744;2023-08-12T17:02:01;98365.27;;;22.44;56.87
50302;BME280;36550;50.472;19.744;2023-08-12T17:05:45;98368.28;;;22.41;56.97
50302;BME280;36550;50.472;19.744;2023-08-12T17:09:28;98366.23;;;22.37;57.11
50302;BME280;36550;50.472;19.744;2023-08-12T17:13:13;98365.52;;;22.33;57.27
50302;BME280;36550;50.472;19.744;2023-08-12T17:16:56;98364.52;;;22.30;57.47
50302;BME280;36550;50.472;19.744;2023-08-12T17:20:41;98361.65;;;22.26;57.64
50302;BME280;36550;50.472;19.744;2023-08-12T17:24:25;98362.89;;;22.13;60.10
50302;BME280;36550;50.472;19.744;2023-08-12T17:28:09;98365.28;;;21.73;64.96
50302;BME280;36550;50.472;19.744;2023-08-12T17:31:52;98362.89;;;21.42;67.60
50302;BME280;36550;50.472;19.744;2023-08-12T17:35:36;98367.02;;;21.20;69.97
50302;BME280;36550;50.472;19.744;2023-08-12T17:38:20;98368.55;;;21.04;71.43
50302;BME280;36550;50.472;19.744;2023-08-12T17:41:24;98367.94;;;20.93;72.50
50302;BME280;36550;50.472;19.744;2023-08-12T17:45:08;98370.90;;;20.81;73.81
50302;BME280;36550;50.472;19.744;2023-08-12T17:48:53;98371.38;;;20.69;74.82
50302;BME280;36550;50.472;19.744;2023-08-12T17:52:37;98370.62;;;20.57;75.84
50302;BME280;36550;50.472;19.744;2023-08-12T17:56:21;98370.14;;;20.43;76.38
50302;BME280;36550;50.472;19.744;2023-08-12T18:00:06;98368.92;;;20.29;77.27
50302;BME280;36550;50.472;19.744;2023-08-12T18:03:50;98365.52;;;20.15;77.90
50302;BME280;36550;50.472;19.744;2023-08-12T18:07:35;98368.52;;;20.04;78.51
50302;BME280;36550;50.472;19.744;2023-08-12T18:11:19;98367.23;;;19.93;79.20
50302;BME280;36550;50.472;19.744;2023-08-12T18:15:04;98378.09;;;19.80;79.74
50302;BME280;36550;50.472;19.744;2023-08-12T18:18:48;98380.75;;;19.70;80.20
50302;BME280;36550;50.472;19.744;2023-08-12T18:22:33;98387.69;;;19.59;80.64
50302;BME280;36550;50.472;19.744;2023-08-12T18:26:17;98389.06;;;19.50;80.88
50302;BME280;36550;50.472;19.744;2023-08-12T18:30:01;98391.58;;;19.43;81.09
50302;BME280;36550;50.472;19.744;2023-08-12T18:33:45;98395.63;;;19.33;80.88